Time;durP1;ratioP1;P1;durP2;ratioP2;P2;SDS_P1;SDS_P2;PMS_P1;PMS_P2;Temp;Humidity;BMP_temperature;BMP_pressure;BME280_temperature;BME280_humidity;BME280_pressure;Samples;Min_cycle;Max_cycle;Signal;HPM_P1;HPM_P2
2023/01/28 00:01:57;;;;;;;21.15;10.50;;;-0.90;99.90;;;;;;5078205;28;20641;-34
2023/01/28 00:04:23;;;;;;;17.40;8.40;;;-0.90;99.90;;;;;;5077233;28;20444;-32
2023/01/28 00:06:49;;;;;;;25.52;12.40;;;-0.90;99.90;;;;;;5076734;28;20035;-36
2023/01/28 00:09:15;;;;;;;15.63;9.50;;;-0.90;99.90;;;;;;5075879;28;20201;-32
2023/01/28 00:11:41;;;;;;;23.05;10.60;;;-0.90;99.90;;;;;;5075861;28;20028;-30
2023/01/28 00:14:07;;;;;;;20.30;9.25;;;-0.90;99.90;;;;;;5080752;28;20512;-32
2023/01/28 00:16:33;;;;;;;20.13;10.43;;;-0.90;99.90;;;;;;5066022;28;22384;-30
2023/01/28 00:18:58;;;;;;;24.30;10.98;;;-0.90;99.90;;;;;;5083248;28;20024;-30
2023/01/28 00:21:24;;;;;;;20.33;10.65;;;-0.90;99.90;;;;;;5083914;28;20020;-30
2023/01/28 00:23:55;;;;;;;22.15;10.43;;;-0.90;99.90;;;;;;5088337;28;20024;-35
2023/01/28 00:26:23;;;;;;;23.65;10.75;;;-0.90;99.90;;;;;;5086054;28;20052;-33
2023/01/28 00:28:49;;;;;;;22.83;11.13;;;-0.90;99.90;;;;;;5085540;28;20027;-32
2023/01/28 00:31:16;;;;;;;21.92;10.80;;;-0.90;99.90;;;;;;5086164;28;20042;-30
2023/01/28 00:33:43;;;;;;;24.17;11.57;;;-0.90;99.90;;;;;;5086304;28;20031;-30
2023/01/28 00:36:10;;;;;;;26.45;11.52;;;-0.90;99.90;;;;;;5059962;28;20030;-30
2023/01/28 00:38:36;;;;;;;21.55;10.90;;;-0.90;99.90;;;;;;5079163;28;20473;-32
2023/01/28 00:41:10;;;;;;;22.48;11.45;;;-0.90;99.90;;;;;;5062384;28;20120;-35
2023/01/28 00:43:36;;;;;;;24.05;12.20;;;-0.90;99.90;;;;;;5085408;28;20032;-29
2023/01/28 00:46:03;;;;;;;19.30;8.95;;;-0.90;99.90;;;;;;5081070;28;20094;-35
2023/01/28 00:48:29;;;;;;;22.13;10.50;;;-0.90;99.90;;;;;;5082312;28;20030;-30
2023/01/28 00:50:55;;;;;;;22.58;11.43;;;-0.90;99.90;;;;;;5077985;28;20036;-29
2023/01/28 00:53:21;;;;;;;24.98;10.23;;;-0.90;99.90;;;;;;5078633;28;20028;-30
2023/01/28 00:55:47;;;;;;;24.35;10.40;;;-0.90;99.90;;;;;;5079182;28;20038;-30
2023/01/28 00:58:12;;;;;;;21.90;11.38;;;-0.90;99.90;;;;;;5082655;28;20032;-31
2023/01/28 01:00:38;;;;;;;18.25;10.40;;;-0.90;99.90;;;;;;5075944;28;20165;-31
2023/01/28 01:03:03;;;;;;;24.25;11.02;;;-0.90;99.90;;;;;;5079219;28;20043;-31
2023/01/28 01:05:29;;;;;;;23.15;9.82;;;-0.90;99.90;;;;;;5083780;28;20479;-29
2023/01/28 01:07:55;;;;;;;21.88;10.45;;;-0.90;99.90;;;;;;5087616;28;20174;-32
2023/01/28 01:10:21;;;;;;;21.58;10.30;;;-0.90;99.90;;;;;;5080228;28;20097;-29
2023/01/28 01:12:48;;;;;;;22.80;10.90;;;-0.90;99.90;;;;;;5081465;28;20466;-30
2023/01/28 01:15:15;;;;;;;19.77;9.27;;;-0.90;99.90;;;;;;5082612;28;20036;-30
2023/01/28 01:17:42;;;;;;;20.10;10.60;;;-0.90;99.90;;;;;;5082529;28;20036;-30
2023/01/28 01:20:13;;;;;;;23.58;10.57;;;-0.90;99.90;;;;;;5073574;28;20499;-29
2023/01/28 01:22:39;;;;;;;21.40;10.57;;;-0.90;99.90;;;;;;5078611;28;20020;-31
2023/01/28 01:25:05;;;;;;;17.08;10.15;;;-0.90;99.90;;;;;;5073912;28;20088;-30
2023/01/28 01:27:31;;;;;;;18.65;9.60;;;-0.90;99.90;;;;;;5086918;28;20485;-31
2023/01/28 01:30:00;;;;;;;26.25;10.88;;;-0.90;99.90;;;;;;5076541;28;20032;-32
2023/01/28 01:32:31;;;;;;;22.85;10.88;;;-0.90;99.90;;;;;;5081075;28;20043;-30
2023/01/28 01:34:57;;;;;;;19.63;10.45;;;-0.90;99.90;;;;;;5067493;28;20154;-30
2023/01/28 01:37:23;;;;;;;25.63;11.75;;;-0.90;99.90;;;;;;5063490;28;20032;-31
2023/01/28 01:39:48;;;;;;;20.10;10.13;;;-0.90;99.90;;;;;;5074073;28;20032;-32
2023/01/28 01:42:14;;;;;;;25.20;11.20;;;-0.90;99.90;;;;;;5077127;28;20035;-32
2023/01/28 01:45:00;;;;;;;24.70;11.30;;;-0.90;99.90;;;;;;5082111;28;20055;-29
2023/01/28 01:48:02;;;;;;;22.38;11.07;;;-0.90;99.90;;;;;;5078578;28;20366;-31
2023/01/28 01:50:44;;;;;;;21.13;10.50;;;-0.90;99.90;;;;;;5071689;28;21186;-30
2023/01/28 01:53:14;;;;;;;25.75;10.80;;;-0.80;99.90;;;;;;5078028;28;20481;-30
2023/01/28 01:55:44;;;;;;;19.33;11.00;;;-0.80;99.90;;;;;;5081573;28;20356;-30
2023/01/28 01:58:14;;;;;;;27.92;11.38;;;-0.90;99.90;;;;;;5072702;28;20036;-31
2023/01/28 02:00:41;;;;;;;27.58;11.32;;;-0.90;99.90;;;;;;5052445;28;20040;-30
2023/01/28 02:03:09;;;;;;;20.52;10.32;;;-0.90;99.90;;;;;;5050042;28;20119;-30
2023/01/28 02:05:35;;;;;;;27.27;12.02;;;-0.80;99.90;;;;;;5079561;28;20083;-30
2023/01/28 02:10:48;;;;;;;21.20;10.13;;;-0.90;99.90;;;;;;5082143;28;20043;-30
2023/01/28 02:13:15;;;;;;;24.63;10.85;;;-0.80;99.90;;;;;;5077600;28;20021;-29
2023/01/28 02:15:43;;;;;;;24.93;10.77;;;-0.80;99.90;;;;;;5083483;28;20056;-30
2023/01/28 02:18:08;;;;;;;19.52;8.70;;;-0.80;99.90;;;;;;5082906;28;20077;-30
2023/01/28 02:20:49;;;;;;;21.83;10.23;;;-0.90;99.90;;;;;;5079173;28;20044;-29
2023/01/28 02:23:34;;;;;;;24.30;11.93;;;-0.90;99.90;;;;;;5078253;28;20024;-31
2023/01/28 02:26:14;;;;;;;20.88;9.15;;;-0.80;99.90;;;;;;5086198;28;20027;-29
2023/01/28 02:28:43;;;;;;;21.42;10.07;;;-0.90;99.90;;;;;;5078078;28;20043;-29
2023/01/28 02:31:22;;;;;;;;;;;-0.90;99.90;;;;;;5083920;28;20028;-31
2023/01/28 02:34:01;;;;;;;16.48;9.02;;;-0.90;99.90;;;;;;5074233;28;19970;-31
2023/01/28 02:36:53;;;;;;;23.98;11.75;;;-0.90;99.90;;;;;;5080797;28;20137;-31
2023/01/28 02:39:30;;;;;;;19.73;9.98;;;-0.90;99.90;;;;;;5080951;28;20020;-30
2023/01/28 02:42:03;;;;;;;21.00;9.50;;;-0.90;99.90;;;;;;5062053;28;20056;-29
2023/01/28 02:44:28;;;;;;;19.88;8.60;;;-0.90;99.90;;;;;;5076411;28;20024;-30
2023/01/28 02:49:58;;;;;;;19.63;9.82;;;-0.90;99.90;;;;;;5080693;28;20109;-29
2023/01/28 02:55:48;;;;;;;17.80;8.85;;;-0.90;99.90;;;;;;5079747;28;20145;-30
2023/01/28 02:58:32;;;;;;;22.33;9.52;;;-0.80;99.90;;;;;;5074322;28;20457;-31
2023/01/28 03:01:03;;;;;;;23.35;11.25;;;-0.90;99.90;;;;;;5078998;28;20044;-32
2023/01/28 03:03:58;;;;;;;23.08;11.52;;;-0.90;99.90;;;;;;5073940;28;20032;-31
2023/01/28 03:06:34;;;;;;;25.73;10.75;;;-0.90;99.90;;;;;;5080995;28;20022;-32
2023/01/28 03:09:21;;;;;;;23.92;10.70;;;-0.90;99.90;;;;;;5083836;28;20401;-30
2023/01/28 03:38:24;;;;;;;25.65;10.43;;;-0.80;99.90;;;;;;5077101;28;20547;-30
2023/01/28 03:41:01;;;;;;;23.35;10.73;;;-0.80;99.90;;;;;;5075590;28;20128;-31
2023/01/28 03:43:28;;;;;;;18.88;8.55;;;-0.80;99.90;;;;;;5064862;28;20020;-29
2023/01/28 03:45:54;;;;;;;17.90;8.43;;;-0.80;99.90;;;;;;5081425;28;20029;-29
2023/01/28 03:48:22;;;;;;;20.73;9.23;;;-0.80;99.90;;;;;;5079039;28;20028;-31
2023/01/28 03:50:48;;;;;;;25.52;11.30;;;-0.70;99.90;;;;;;5075296;28;20040;-30
2023/01/28 03:53:15;;;;;;;18.25;9.57;;;-0.70;99.90;;;;;;5075212;28;20492;-30
2023/01/28 03:55:41;;;;;;;22.35;11.75;;;-0.70;99.90;;;;;;5080537;28;20465;-30
2023/01/28 03:58:08;;;;;;;15.48;7.88;;;-0.70;99.90;;;;;;5080102;28;20032;-29
2023/01/28 04:00:36;;;;;;;15.93;8.23;;;-0.70;99.90;;;;;;5081854;28;20397;-30
2023/01/28 04:03:03;;;;;;;18.75;9.15;;;-0.70;99.90;;;;;;5085743;28;20466;-29
2023/01/28 04:05:29;;;;;;;19.35;9.25;;;-0.70;99.90;;;;;;5077926;28;20031;-33
2023/01/28 04:07:55;;;;;;;20.13;10.50;;;-0.70;99.90;;;;;;5072979;28;20901;-29
2023/01/28 04:10:21;;;;;;;18.00;9.13;;;-0.70;99.90;;;;;;5059737;28;20510;-32
2023/01/28 04:12:48;;;;;;;21.92;10.57;;;-0.70;99.90;;;;;;5060108;28;20708;-29
2023/01/28 04:15:15;;;;;;;18.48;8.82;;;-0.70;99.90;;;;;;5051599;28;20028;-29
2023/01/28 04:17:47;;;;;;;19.45;9.30;;;-0.70;99.90;;;;;;5038734;28;20035;-33
2023/01/28 04:20:14;;;;;;;21.40;9.52;;;-0.70;99.90;;;;;;5064095;28;20025;-30
2023/01/28 04:22:40;;;;;;;18.27;8.77;;;-0.70;99.90;;;;;;5061338;28;20024;-30
2023/01/28 04:25:06;;;;;;;19.42;9.48;;;-0.70;99.90;;;;;;5060555;28;20029;-30
2023/01/28 04:27:32;;;;;;;16.08;8.63;;;-0.70;99.90;;;;;;5059948;28;20295;-30
2023/01/28 04:29:57;;;;;;;18.60;8.95;;;-0.70;99.90;;;;;;5063304;28;20509;-30
2023/01/28 04:32:23;;;;;;;18.85;9.88;;;-0.70;99.90;;;;;;5045339;28;20043;-30
2023/01/28 04:34:48;;;;;;;17.60;8.68;;;-0.70;99.90;;;;;;5061816;28;20104;-33
2023/01/28 04:37:14;;;;;;;13.32;7.28;;;-0.70;99.90;;;;;;5040644;28;20032;-30
2023/01/28 04:39:40;;;;;;;20.17;8.75;;;-0.70;99.90;;;;;;5058575;28;20143;-35
2023/01/28 04:42:05;;;;;;;22.08;9.63;;;-0.70;99.90;;;;;;5058052;28;20105;-29
2023/01/28 04:44:31;;;;;;;21.38;9.95;;;-0.70;99.90;;;;;;5059426;28;20032;-29
2023/01/28 04:46:56;;;;;;;17.60;8.25;;;-0.70;99.90;;;;;;5059935;28;20029;-30
2023/01/28 04:49:22;;;;;;;16.70;8.95;;;-0.70;99.90;;;;;;5062680;28;20449;-30
2023/01/28 04:51:47;;;;;;;20.02;9.65;;;-0.70;99.90;;;;;;5065978;28;20504;-30
2023/01/28 04:54:13;;;;;;;16.40;8.02;;;-0.70;99.90;;;;;;5063949;28;20085;-30
2023/01/28 04:56:39;;;;;;;22.48;9.48;;;-0.70;99.90;;;;;;5062967;28;20016;-30
2023/01/28 04:59:04;;;;;;;21.17;9.85;;;-0.70;99.90;;;;;;5063107;28;20801;-30
2023/01/28 05:01:30;;;;;;;19.15;10.05;;;-0.70;99.90;;;;;;5057977;28;20036;-32
2023/01/28 05:03:56;;;;;;;15.95;8.00;;;-0.70;99.90;;;;;;5059481;28;20111;-29
2023/01/28 05:06:21;;;;;;;20.17;10.00;;;-0.70;99.90;;;;;;5059786;28;20036;-32
2023/01/28 05:08:47;;;;;;;17.30;8.43;;;-0.80;99.90;;;;;;5076223;28;20066;-32
2023/01/28 05:11:14;;;;;;;20.90;9.90;;;-0.70;99.90;;;;;;5063712;28;20048;-33
2023/01/28 05:13:39;;;;;;;19.75;8.88;;;-0.70;99.90;;;;;;5063598;28;20496;-30
2023/01/28 05:16:06;;;;;;;21.58;9.43;;;-0.70;99.90;;;;;;5079642;28;20384;-29
2023/01/28 05:18:31;;;;;;;17.30;8.50;;;-0.80;99.90;;;;;;5083408;28;20020;-30
2023/01/28 05:20:57;;;;;;;20.10;10.13;;;-0.70;99.90;;;;;;5082525;28;20039;-35
2023/01/28 05:23:23;;;;;;;14.75;7.15;;;-0.70;99.90;;;;;;5071181;28;20024;-31
2023/01/28 05:25:48;;;;;;;14.02;7.10;;;-0.70;99.90;;;;;;5077598;28;20382;-31
2023/01/28 05:28:15;;;;;;;17.75;8.82;;;-0.70;99.90;;;;;;5080753;28;20021;-32
2023/01/28 05:30:40;;;;;;;16.75;8.57;;;-0.70;99.90;;;;;;5058434;28;20027;-30
2023/01/28 05:33:06;;;;;;;14.80;8.02;;;-0.70;99.90;;;;;;5080778;28;20150;-32
2023/01/28 05:35:32;;;;;;;17.13;8.18;;;-0.70;99.90;;;;;;5077410;28;20063;-31
2023/01/28 05:37:57;;;;;;;15.55;8.85;;;-0.70;99.90;;;;;;5081423;28;20409;-30
2023/01/28 05:40:23;;;;;;;16.75;8.18;;;-0.70;99.90;;;;;;5064374;28;20024;-31
2023/01/28 05:42:49;;;;;;;21.13;8.52;;;-0.70;99.90;;;;;;5079956;28;20043;-31
2023/01/28 05:45:14;;;;;;;15.38;7.93;;;-0.70;99.90;;;;;;5078020;28;20039;-31
2023/01/28 05:47:40;;;;;;;17.40;8.07;;;-0.70;99.90;;;;;;5077699;28;20028;-29
2023/01/28 05:50:06;;;;;;;17.10;8.32;;;-0.70;99.90;;;;;;5078678;28;20040;-30
2023/01/28 05:52:32;;;;;;;16.50;8.48;;;-0.70;99.90;;;;;;5084642;28;20439;-29
2023/01/28 05:54:58;;;;;;;20.58;9.27;;;-0.70;99.90;;;;;;5079069;28;20031;-30
2023/01/28 05:57:24;;;;;;;19.35;8.27;;;-0.70;99.90;;;;;;5077256;28;20039;-33
2023/01/28 05:59:49;;;;;;;17.33;8.25;;;-0.70;99.90;;;;;;5083575;28;20032;-30
2023/01/28 06:02:15;;;;;;;19.92;10.07;;;-0.70;99.90;;;;;;5077238;28;20546;-31
2023/01/28 06:04:40;;;;;;;17.25;7.50;;;-0.70;99.90;;;;;;5079209;28;20604;-33
2023/01/28 06:07:06;;;;;;;12.98;8.10;;;-0.70;99.90;;;;;;5077598;28;20029;-30
2023/01/28 06:09:32;;;;;;;18.10;8.38;;;-0.70;99.90;;;;;;5079301;28;20036;-30
2023/01/28 06:11:57;;;;;;;15.68;8.07;;;-0.70;99.90;;;;;;5082367;28;20060;-30
2023/01/28 06:14:23;;;;;;;20.45;9.52;;;-0.70;99.90;;;;;;5079241;28;20017;-32
2023/01/28 06:16:51;;;;;;;15.85;8.80;;;-0.70;99.90;;;;;;5060728;28;20031;-30
2023/01/28 06:19:16;;;;;;;11.27;6.75;;;-0.70;99.90;;;;;;5076888;28;20046;-30
2023/01/28 06:21:42;;;;;;;17.00;8.05;;;-0.70;99.90;;;;;;5079072;28;20401;-31
2023/01/28 06:24:08;;;;;;;14.90;7.60;;;-0.70;99.90;;;;;;5058491;28;20453;-30
2023/01/28 06:26:34;;;;;;;17.25;7.95;;;-0.70;99.90;;;;;;5079572;28;20027;-30
2023/01/28 06:29:00;;;;;;;19.23;8.63;;;-0.60;99.90;;;;;;5080381;28;20020;-31
2023/01/28 06:31:25;;;;;;;13.25;6.93;;;-0.70;99.90;;;;;;5077856;28;20032;-30
2023/01/28 06:33:51;;;;;;;16.92;7.22;;;-0.60;99.90;;;;;;5077729;28;20025;-31
2023/01/28 06:36:16;;;;;;;13.98;7.50;;;-0.60;99.90;;;;;;5082423;28;20027;-37
2023/01/28 06:38:42;;;;;;;12.90;6.78;;;-0.60;99.90;;;;;;5075902;28;20029;-32
2023/01/28 06:41:08;;;;;;;15.45;7.88;;;-0.60;99.90;;;;;;5077085;28;20440;-33
2023/01/28 06:43:33;;;;;;;14.38;7.72;;;-0.60;99.90;;;;;;5078463;28;20032;-30
2023/01/28 06:45:59;;;;;;;17.25;8.10;;;-0.60;99.90;;;;;;5070587;28;20127;-30
2023/01/28 06:48:26;;;;;;;14.57;7.05;;;-0.60;99.90;;;;;;5078473;28;20065;-31
2023/01/28 06:50:52;;;;;;;13.27;8.18;;;-0.60;99.90;;;;;;5082091;28;20059;-30
2023/01/28 06:53:18;;;;;;;13.68;7.47;;;-0.60;99.90;;;;;;5086973;28;20625;-30
2023/01/28 06:55:44;;;;;;;16.10;8.52;;;-0.60;99.90;;;;;;5075021;28;20029;-30
2023/01/28 06:58:11;;;;;;;15.38;7.65;;;-0.60;99.90;;;;;;5079640;28;20035;-29
2023/01/28 07:00:36;;;;;;;16.00;8.55;;;-0.60;99.90;;;;;;5077765;28;20118;-31
2023/01/28 07:03:03;;;;;;;19.85;8.38;;;-0.60;99.90;;;;;;5080257;28;20055;-30
2023/01/28 07:05:29;;;;;;;16.48;8.13;;;-0.60;99.90;;;;;;5079640;28;20514;-30
2023/01/28 07:07:54;;;;;;;19.58;8.70;;;-0.60;99.90;;;;;;5058924;28;20047;-32
2023/01/28 07:10:20;;;;;;;13.65;7.28;;;-0.60;99.90;;;;;;5081022;28;20127;-32
2023/01/28 07:12:46;;;;;;;14.88;8.30;;;-0.60;99.90;;;;;;5080364;28;20021;-30
2023/01/28 07:15:11;;;;;;;13.30;6.65;;;-0.60;99.90;;;;;;5074575;28;20039;-33
2023/01/28 07:17:41;;;;;;;20.75;8.27;;;-0.60;99.90;;;;;;5077548;28;20036;-29
2023/01/28 07:20:09;;;;;;;15.90;7.70;;;-0.60;99.90;;;;;;5079691;28;20031;-32
2023/01/28 07:22:36;;;;;;;18.40;8.57;;;-0.60;99.90;;;;;;5054681;28;21110;-30
2023/01/28 07:25:04;;;;;;;15.93;8.63;;;-0.60;99.90;;;;;;5058680;28;20036;-32
2023/01/28 07:27:32;;;;;;;16.38;8.57;;;-0.60;99.90;;;;;;5068518;28;20024;-31
2023/01/28 07:29:57;;;;;;;15.57;8.47;;;-0.60;99.90;;;;;;5071221;28;20045;-33
2023/01/28 07:32:25;;;;;;;14.80;7.53;;;-0.60;99.90;;;;;;5069970;28;20047;-36
2023/01/28 07:34:51;;;;;;;15.10;8.13;;;-0.60;99.90;;;;;;5069084;28;20370;-33
2023/01/28 07:37:17;;;;;;;17.67;8.23;;;-0.60;99.90;;;;;;5068272;28;20293;-30
2023/01/28 07:39:42;;;;;;;17.45;9.32;;;-0.60;99.90;;;;;;5070003;28;20460;-32
2023/01/28 07:42:08;;;;;;;16.92;9.10;;;-0.60;99.90;;;;;;5062805;28;20057;-31
2023/01/28 07:44:35;;;;;;;21.08;9.70;;;-0.60;99.90;;;;;;5081143;28;20383;-30
2023/01/28 07:47:01;;;;;;;22.55;8.85;;;-0.60;99.90;;;;;;5084041;28;20055;-32
2023/01/28 07:49:27;;;;;;;17.45;8.23;;;-0.60;99.90;;;;;;5084062;28;20062;-30
2023/01/28 07:51:53;;;;;;;17.33;7.90;;;-0.60;99.90;;;;;;5086349;28;20020;-32
2023/01/28 07:54:18;;;;;;;17.90;9.38;;;-0.60;99.90;;;;;;5080471;28;20366;-30
2023/01/28 07:56:44;;;;;;;15.05;8.35;;;-0.60;99.90;;;;;;5080154;28;20504;-30
2023/01/28 07:59:10;;;;;;;12.35;6.38;;;-0.60;99.90;;;;;;5082037;28;20032;-30
2023/01/28 08:01:35;;;;;;;18.40;8.32;;;-0.50;99.90;;;;;;5084403;28;20128;-32
2023/01/28 08:04:01;;;;;;;18.27;9.10;;;-0.50;99.90;;;;;;5082665;28;20036;-30
2023/01/28 08:06:30;;;;;;;13.55;8.32;;;-0.50;99.90;;;;;;5080107;28;20024;-33
2023/01/28 08:08:55;;;;;;;16.33;9.27;;;-0.50;99.90;;;;;;5075170;28;20474;-30
2023/01/28 08:11:22;;;;;;;18.10;8.73;;;-0.50;99.90;;;;;;5066350;28;20036;-30
2023/01/28 08:13:48;;;;;;;18.73;9.50;;;-0.50;99.90;;;;;;5083140;28;20028;-30
2023/01/28 08:16:14;;;;;;;17.38;8.88;;;-0.50;99.90;;;;;;5078893;28;20105;-30
2023/01/28 08:18:40;;;;;;;17.38;8.30;;;-0.50;99.90;;;;;;5075996;28;20081;-31
2023/01/28 08:21:05;;;;;;;23.70;11.02;;;-0.50;99.90;;;;;;5084327;28;20512;-29
2023/01/28 08:23:33;;;;;;;18.10;9.30;;;-0.50;99.90;;;;;;5082899;28;20032;-30
2023/01/28 08:25:59;;;;;;;18.50;9.55;;;-0.50;99.90;;;;;;5082890;28;20055;-32
2023/01/28 08:28:25;;;;;;;16.80;8.40;;;-0.50;99.90;;;;;;5081308;28;20078;-30
2023/01/28 08:30:51;;;;;;;19.13;8.85;;;-0.50;99.90;;;;;;5083433;28;20039;-30
2023/01/28 08:33:18;;;;;;;19.08;9.15;;;-0.50;99.90;;;;;;5078794;28;20078;-30
2023/01/28 08:35:44;;;;;;;18.80;8.90;;;-0.50;99.90;;;;;;5078031;28;20028;-30
2023/01/28 08:38:12;;;;;;;14.98;9.00;;;-0.50;99.90;;;;;;5075119;28;20094;-33
2023/01/28 08:40:38;;;;;;;19.08;10.18;;;-0.40;99.90;;;;;;5064353;28;20029;-33
2023/01/28 08:43:04;;;;;;;14.07;7.70;;;-0.40;99.90;;;;;;5080913;28;20035;-33
2023/01/28 08:45:30;;;;;;;17.85;9.10;;;-0.40;99.90;;;;;;5078416;28;20016;-32
2023/01/28 08:48:02;;;;;;;17.60;9.50;;;-0.40;99.90;;;;;;5079127;28;20038;-31
2023/01/28 08:50:31;;;;;;;14.93;8.02;;;-0.40;99.90;;;;;;5076785;28;20623;-29
2023/01/28 08:53:00;;;;;;;17.45;9.95;;;-0.40;99.90;;;;;;5079170;28;20033;-31
2023/01/28 08:55:26;;;;;;;;;;;-0.40;99.90;;;;;;5081550;28;20103;-31
2023/01/28 08:57:52;;;;;;;13.98;7.40;;;-0.40;99.90;;;;;;5066248;28;20285;-34
2023/01/28 09:00:18;;;;;;;17.08;8.63;;;-0.40;99.90;;;;;;5078300;28;20595;-33
2023/01/28 09:02:44;;;;;;;16.70;8.23;;;-0.40;99.90;;;;;;5084780;28;20429;-30
2023/01/28 09:05:10;;;;;;;16.52;8.20;;;-0.40;99.90;;;;;;5082843;28;20149;-30
2023/01/28 09:07:36;;;;;;;22.52;10.35;;;-0.30;99.90;;;;;;5078991;28;20032;-31
2023/01/28 09:10:04;;;;;;;16.70;9.68;;;-0.40;99.90;;;;;;5081413;28;20554;-30
2023/01/28 09:12:30;;;;;;;19.52;8.75;;;-0.40;99.90;;;;;;5077394;28;20036;-31
2023/01/28 09:14:56;;;;;;;19.45;9.80;;;-0.30;99.90;;;;;;5056127;28;20031;-31
2023/01/28 09:17:22;;;;;;;18.80;9.80;;;-0.30;99.90;;;;;;5079523;28;20554;-31
2023/01/28 09:19:48;;;;;;;19.70;9.13;;;-0.30;99.90;;;;;;5076423;28;20031;-33
2023/01/28 09:22:14;;;;;;;16.00;7.72;;;-0.30;99.90;;;;;;5082096;28;20119;-30
2023/01/28 09:24:39;;;;;;;18.60;9.55;;;-0.30;99.90;;;;;;5078659;28;20110;-30
2023/01/28 09:27:06;;;;;;;20.67;9.77;;;-0.30;99.90;;;;;;5083170;28;20481;-33
2023/01/28 09:29:33;;;;;;;18.73;9.18;;;-0.30;99.90;;;;;;5075615;28;20133;-30
2023/01/28 09:31:59;;;;;;;21.03;11.13;;;-0.20;99.90;;;;;;5079445;28;20051;-31
2023/01/28 09:34:25;;;;;;;23.33;11.95;;;-0.20;99.90;;;;;;5078586;28;20278;-30
2023/01/28 09:36:50;;;;;;;19.10;10.25;;;-0.20;99.90;;;;;;5083116;28;20032;-30
2023/01/28 09:39:16;;;;;;;16.63;9.82;;;-0.10;99.90;;;;;;5085542;28;20497;-34
2023/01/28 09:41:48;;;;;;;20.10;10.45;;;-0.10;99.90;;;;;;5079954;28;20134;-34
2023/01/28 09:44:50;;;;;;;17.33;9.85;;;-0.10;99.90;;;;;;5084741;28;20484;-30
2023/01/28 09:47:31;;;;;;;17.90;10.32;;;-0.10;99.90;;;;;;5093322;28;20020;-30
2023/01/28 09:50:01;;;;;;;18.00;8.57;;;-0.10;99.90;;;;;;5084099;28;20488;-31
2023/01/28 09:52:33;;;;;;;18.75;9.95;;;-0.10;99.90;;;;;;5082073;28;20023;-32
2023/01/28 09:55:07;;;;;;;20.60;10.10;;;-0.10;99.90;;;;;;5085359;28;20176;-30
2023/01/28 09:57:44;;;;;;;20.08;9.93;;;-0.10;99.90;;;;;;5080115;28;20471;-33
2023/01/28 10:00:22;;;;;;;19.38;10.05;;;0.00;99.90;;;;;;5077673;28;20114;-31
2023/01/28 10:03:25;;;;;;;18.08;10.23;;;0.00;99.90;;;;;;5076618;28;20814;-34
2023/01/28 10:06:05;;;;;;;16.45;8.65;;;0.00;99.90;;;;;;5060494;28;20012;-30
2023/01/28 10:08:51;;;;;;;19.75;10.43;;;0.00;99.90;;;;;;5048523;28;20052;-30
2023/01/28 10:11:32;;;;;;;18.60;9.60;;;0.00;99.90;;;;;;5038561;28;20032;-33
2023/01/28 10:14:37;;;;;;;21.10;10.80;;;0.00;99.90;;;;;;5058882;28;20076;-32
2023/01/28 10:17:25;;;;;;;15.25;8.98;;;0.00;99.90;;;;;;4972800;28;20073;-33
2023/01/28 10:20:11;;;;;;;17.95;9.63;;;0.00;99.90;;;;;;5064925;28;20132;-31
2023/01/28 10:22:47;;;;;;;18.70;9.45;;;0.00;99.90;;;;;;5047429;28;20471;-30
2023/01/28 10:25:27;;;;;;;19.02;10.15;;;0.10;99.90;;;;;;5060167;28;20016;-33
2023/01/28 10:27:52;;;;;;;12.32;7.75;;;0.10;99.90;;;;;;5061209;28;20089;-31
2023/01/28 10:30:26;;;;;;;17.92;9.50;;;0.10;99.90;;;;;;5059099;28;20101;-34
2023/01/28 10:33:16;;;;;;;14.60;8.55;;;0.10;99.90;;;;;;5059440;28;20562;-30
2023/01/28 10:35:42;;;;;;;18.10;8.77;;;0.10;99.90;;;;;;5057157;28;20635;-35
2023/01/28 10:38:13;;;;;;;17.42;9.73;;;0.20;99.90;;;;;;5055303;28;20123;-30
2023/01/28 10:40:46;;;;;;;17.33;8.68;;;0.20;99.90;;;;;;5054436;28;20037;-30
2023/01/28 10:43:16;;;;;;;19.45;8.98;;;0.20;99.90;;;;;;5041961;28;20056;-36
2023/01/28 10:46:00;;;;;;;16.02;9.27;;;0.20;99.90;;;;;;5045140;28;20481;-33
2023/01/28 10:48:34;;;;;;;16.63;8.82;;;0.30;99.90;;;;;;5034868;28;20111;-31
2023/01/28 10:51:03;;;;;;;17.33;8.95;;;0.20;99.90;;;;;;5054276;28;20455;-32
2023/01/28 10:53:39;;;;;;;15.27;8.55;;;0.20;99.90;;;;;;5055526;28;20482;-31
2023/01/28 10:56:09;;;;;;;19.30;9.50;;;0.20;99.90;;;;;;5064434;28;20536;-33
2023/01/28 10:59:06;;;;;;;16.67;8.23;;;0.30;99.90;;;;;;5055908;28;20485;-30
2023/01/28 11:01:44;;;;;;;17.33;9.05;;;0.30;99.90;;;;;;5058135;28;20048;-32
2023/01/28 11:04:24;;;;;;;16.65;8.73;;;0.30;99.90;;;;;;5051897;28;20181;-34
2023/01/28 11:07:04;;;;;;;16.02;7.78;;;0.30;99.90;;;;;;5060259;28;20032;-34
2023/01/28 11:09:37;;;;;;;15.98;8.57;;;0.40;99.90;;;;;;5076421;28;20036;-32
2023/01/28 11:12:18;;;;;;;18.98;8.00;;;0.30;99.90;;;;;;5079441;28;20032;-32
2023/01/28 11:14:52;;;;;;;18.00;8.07;;;0.30;99.90;;;;;;5085902;28;20060;-31
2023/01/28 11:17:20;;;;;;;17.85;10.05;;;0.30;99.90;;;;;;5079022;28;20452;-31
2023/01/28 11:19:46;;;;;;;15.75;8.00;;;0.30;99.90;;;;;;5076420;28;20024;-31
2023/01/28 11:22:31;;;;;;;15.65;8.52;;;0.30;99.90;;;;;;5079416;28;20028;-30
2023/01/28 11:25:00;;;;;;;16.15;9.52;;;0.40;99.90;;;;;;5078854;28;20498;-30
2023/01/28 11:27:30;;;;;;;13.63;8.43;;;0.40;99.90;;;;;;5079327;28;20027;-34
2023/01/28 11:30:02;;;;;;;16.73;8.38;;;0.50;99.90;;;;;;5082455;28;20070;-31
2023/01/28 11:32:29;;;;;;;15.68;8.52;;;0.40;99.90;;;;;;5079701;28;20034;-34
2023/01/28 11:34:56;;;;;;;13.52;8.98;;;0.50;99.90;;;;;;5064903;28;20035;-31
2023/01/28 11:37:24;;;;;;;15.65;9.05;;;0.50;99.90;;;;;;5076360;28;20405;-33
2023/01/28 11:40:19;;;;;;;19.25;8.38;;;0.50;99.90;;;;;;5084226;28;20063;-35
2023/01/28 11:42:47;;;;;;;13.45;8.65;;;0.50;99.90;;;;;;5067698;28;21666;-31
2023/01/28 11:45:21;;;;;;;19.10;8.73;;;0.50;99.90;;;;;;5076366;28;20100;-31
2023/01/28 11:48:01;;;;;;;12.70;7.55;;;0.40;99.90;;;;;;5059236;28;20024;-31
2023/01/28 11:50:36;;;;;;;11.63;6.32;;;0.40;99.90;;;;;;5079321;28;20028;-33
2023/01/28 11:53:23;;;;;;;12.05;6.82;;;0.40;99.90;;;;;;5076858;28;22001;-34
2023/01/28 11:56:03;;;;;;;16.35;7.57;;;0.50;99.90;;;;;;5072234;28;20029;-31
2023/01/28 11:58:46;;;;;;;16.25;8.02;;;0.50;99.90;;;;;;5076655;28;20020;-30
2023/01/28 12:01:43;;;;;;;14.63;6.63;;;0.50;99.90;;;;;;5076271;28;20040;-34
2023/01/28 12:04:42;;;;;;;15.00;8.48;;;0.50;99.90;;;;;;5078616;28;20042;-33
2023/01/28 12:07:19;;;;;;;13.25;8.18;;;0.50;99.90;;;;;;5070220;28;20677;-32
2023/01/28 12:09:57;;;;;;;13.57;7.80;;;0.60;99.90;;;;;;5070414;28;20052;-34
2023/01/28 12:12:26;;;;;;;11.57;6.63;;;0.60;99.90;;;;;;5073889;28;20148;-34
2023/01/28 12:14:51;;;;;;;16.17;7.70;;;0.60;99.90;;;;;;5079346;28;20024;-31
2023/01/28 12:17:47;;;;;;;16.30;8.15;;;0.60;99.90;;;;;;5075959;28;20040;-32
2023/01/28 12:20:33;;;;;;;15.38;8.27;;;0.60;99.90;;;;;;5077929;28;20038;-31
2023/01/28 12:23:34;;;;;;;15.02;8.52;;;0.60;99.90;;;;;;5076254;28;20034;-31
2023/01/28 12:26:10;;;;;;;13.70;6.95;;;0.60;99.90;;;;;;5078765;28;20056;-34
2023/01/28 12:28:43;;;;;;;11.88;6.70;;;0.60;99.90;;;;;;5078324;28;20499;-31
2023/01/28 12:31:29;;;;;;;15.50;8.25;;;0.60;99.90;;;;;;5080158;28;20039;-30
2023/01/28 12:34:23;;;;;;;14.73;7.70;;;0.60;99.90;;;;;;5082443;28;20035;-30
2023/01/28 12:37:07;;;;;;;18.30;9.95;;;0.60;99.90;;;;;;5084058;28;20095;-30
2023/01/28 12:39:47;;;;;;;16.55;8.07;;;0.70;99.90;;;;;;5084672;28;20043;-32
2023/01/28 12:42:19;;;;;;;14.48;8.30;;;0.70;99.90;;;;;;5078628;28;20081;-32
2023/01/28 12:45:16;;;;;;;19.95;9.32;;;0.60;99.90;;;;;;5081883;28;20081;-33
2023/01/28 12:47:49;;;;;;;12.38;7.68;;;0.70;99.90;;;;;;5081515;28;20067;-30
2023/01/28 12:50:31;;;;;;;15.07;8.43;;;0.70;99.90;;;;;;5086186;28;20028;-31
2023/01/28 12:53:08;;;;;;;16.10;8.45;;;0.70;99.90;;;;;;5076977;28;20475;-32
2023/01/28 12:55:39;;;;;;;16.02;8.32;;;0.70;99.90;;;;;;5077261;28;20074;-31
2023/01/28 12:58:31;;;;;;;15.88;7.75;;;0.70;99.90;;;;;;5081694;28;20040;-31
2023/01/28 13:01:03;;;;;;;14.10;7.82;;;0.70;99.90;;;;;;5075654;28;20036;-31
2023/01/28 13:04:01;;;;;;;18.02;9.10;;;0.70;99.90;;;;;;5080811;28;20469;-31
2023/01/28 13:06:34;;;;;;;17.90;9.02;;;0.70;99.90;;;;;;5079329;28;20040;-32
2023/01/28 13:09:10;;;;;;;14.52;8.10;;;0.70;99.90;;;;;;5076880;28;20052;-30
2023/01/28 13:11:37;;;;;;;15.93;9.52;;;0.80;99.90;;;;;;5083487;28;20105;-30
2023/01/28 13:14:03;;;;;;;16.77;7.95;;;0.80;99.90;;;;;;5083232;28;20027;-33
2023/01/28 13:16:29;;;;;;;10.55;6.88;;;0.80;99.90;;;;;;5078281;28;20032;-29
2023/01/28 13:19:19;;;;;;;14.95;8.27;;;0.80;99.90;;;;;;5080406;28;20021;-30
2023/01/28 13:21:46;;;;;;;16.73;8.35;;;0.70;99.90;;;;;;5085510;28;20038;-32
2023/01/28 13:24:12;;;;;;;16.50;8.00;;;0.80;99.90;;;;;;5082775;28;20036;-30
2023/01/28 13:26:53;;;;;;;15.55;7.97;;;0.80;99.90;;;;;;5080815;28;20062;-29
2023/01/28 13:29:33;;;;;;;9.65;5.97;;;0.80;99.90;;;;;;5080608;28;20465;-31
2023/01/28 13:32:01;;;;;;;12.43;7.55;;;0.80;99.90;;;;;;5076428;28;20029;-30